| time (UTC) | temp F | wind direction | speed MPH | gust MPH | rain 1hr in | rain 24hr in | rain mn in | humidity % | barometer mb |
| 20260903081834 | 60 | 134 | 0.0 | 0.0 | 0.00 | 0.20 | 0.00 | 87 | 1005.1 |
| 20260903081616 | 60 | 156 | 0.0 | 0.0 | 0.00 | 0.05 | 0.00 | 87 | 1003.9 |
| 20260903081350 | 60 | 160 | 0.0 | 0.0 | 0.00 | 0.20 | 0.00 | 87 | 1004.9 |
| 20260903080851 | 60 | 146 | 0.0 | 0.0 | 0.00 | 0.20 | 0.00 | 87 | 1004.9 |
| 20260903080337 | 60 | 150 | 0.0 | 0.0 | 0.00 | 0.20 | 0.00 | 86 | 1004.9 |
| 20260903080005 | 59 | 193 | 0.0 | 0.0 | 0.00 | 0.05 | 0.00 | 86 | 1003.7 |
| 20260903075826 | 60 | 170 | 0.0 | 0.0 | 0.00 | 0.20 | 0.00 | 86 | 1004.9 |
| 20260903075322 | 60 | 165 | 0.0 | 0.0 | 0.00 | 0.20 | 0.00 | 86 | 1004.8 |
| 20260903074828 | 60 | 192 | 0.0 | 0.0 | 0.04 | 0.20 | 0.00 | 87 | 1004.8 |
| 20260903074609 | 59 | 245 | 0.0 | 0.0 | 0.01 | 0.05 | 0.00 | 87 | 1003.6 |
| 20260903074334 | 60 | 228 | 0.0 | 0.0 | 0.04 | 0.20 | 0.00 | 87 | 1004.9 |
| 20260903073834 | 60 | 139 | 0.0 | 0.0 | 0.04 | 0.20 | 0.00 | 87 | 1004.8 |
| 20260903073334 | 60 | 166 | 0.0 | 0.0 | 0.04 | 0.20 | 0.00 | 87 | 1004.8 |
| 20260903073109 | 59 | 154 | 0.0 | 0.0 | 0.01 | 0.05 | 0.00 | 87 | 1003.6 |
| 20260903072829 | 60 | 85 | 0.0 | 0.0 | 0.04 | 0.20 | 0.00 | 87 | 1004.6 |
| 20260903072328 | 60 | 84 | 0.0 | 0.0 | 0.04 | 0.20 | 0.00 | 88 | 1004.6 |
| 20260903071830 | 60 | 44 | 0.0 | 0.0 | 0.04 | 0.20 | 0.00 | 87 | 1004.5 |
| 20260903071557 | 60 | 44 | 0.0 | 0.0 | 0.01 | 0.05 | 0.00 | 87 | 1003.3 |
| 20260903071336 | 60 | 36 | 0.0 | 0.0 | 0.04 | 0.20 | 0.00 | 87 | 1004.5 |
| 20260903070822 | 60 | 36 | 0.0 | 0.0 | 0.04 | 0.20 | 0.00 | 87 | 1004.5 |
| 20260903070332 | 60 | 54 | 0.0 | 0.0 | 0.04 | 0.20 | 0.00 | 87 | 1004.6 |
| 20260903070114 | 60 | 42 | 0.0 | 0.0 | 0.01 | 0.05 | 0.00 | 87 | 1003.3 |
| 20260903065830 | 60 | 39 | 0.0 | 0.0 | 0.04 | 0.20 | 0.05 | 87 | 1004.5 |
| 20260903065328 | 60 | 51 | 0.0 | 0.0 | 0.04 | 0.20 | 0.05 | 87 | 1004.4 |
| 20260903064825 | 60 | 101 | 0.0 | 0.0 | 0.00 | 0.16 | 0.04 | 86 | 1004.5 |
| 20260903064503 | 59 | 74 | 0.0 | 0.0 | 0.00 | 0.04 | 0.04 | 86 | 1003.2 |
| 20260903064328 | 60 | 75 | 0.0 | 0.0 | 0.00 | 0.16 | 0.04 | 87 | 1004.5 |
| 20260903063851 | 60 | 75 | 0.0 | 0.0 | 0.00 | 0.16 | 0.04 | 87 | 1004.5 |
| 20260903063335 | 60 | 75 | 0.0 | 0.0 | 0.00 | 0.16 | 0.04 | 86 | 1004.6 |
| 20260903063103 | 60 | 68 | 0.0 | 0.0 | 0.00 | 0.04 | 0.04 | 85 | 1003.3 |
| 20260903062901 | 60 | 68 | 0.0 | 0.0 | 0.00 | 0.16 | 0.04 | 85 | 1004.6 |
| 20260903062320 | 61 | 91 | 0.0 | 0.0 | 0.00 | 0.16 | 0.04 | 85 | 1004.6 |
| 20260903061837 | 61 | 36 | 0.0 | 0.0 | 0.00 | 0.16 | 0.04 | 84 | 1004.7 |
| 20260903061347 | 61 | 71 | 0.0 | 0.0 | 0.00 | 0.16 | 0.04 | 83 | 1004.7 |
| 20260903060834 | 62 | 20 | 0.0 | 0.0 | 0.00 | 0.16 | 0.04 | 84 | 1004.7 |
| 20260903060325 | 62 | 201 | 0.0 | 0.0 | 0.00 | 0.16 | 0.04 | 83 | 1004.7 |
| 20260903060011 | 61 | 156 | 0.0 | 0.0 | 0.00 | 0.04 | 0.04 | 83 | 1003.4 |
| 20260903055828 | 62 | 215 | 0.0 | 0.0 | 0.00 | 0.16 | 0.04 | 83 | 1004.7 |
| 20260903055319 | 62 | 226 | 0.0 | 0.0 | 0.00 | 0.16 | 0.04 | 82 | 1004.7 |
| 20260903054830 | 62 | 200 | 0.0 | 0.0 | 0.00 | 0.16 | 0.04 | 82 | 1004.7 |
| 20260903054615 | 61 | 201 | 0.0 | 0.0 | 0.00 | 0.04 | 0.04 | 82 | 1003.5 |
| 20260903054325 | 62 | 219 | 0.0 | 0.0 | 0.00 | 0.16 | 0.04 | 82 | 1004.7 |
| 20260903053822 | 62 | 210 | 0.0 | 0.0 | 0.00 | 0.16 | 0.04 | 82 | 1004.7 |
| 20260903053329 | 62 | 163 | 0.0 | 0.0 | 0.00 | 0.16 | 0.04 | 81 | 1004.6 |
| 20260903053017 | 61 | 155 | 0.0 | 0.0 | 0.00 | 0.04 | 0.04 | 80 | 1003.4 |
| 20260903052841 | 62 | 124 | 0.0 | 0.0 | 0.00 | 0.16 | 0.04 | 80 | 1004.6 |
| 20260903052327 | 62 | 88 | 0.0 | 0.0 | 0.00 | 0.16 | 0.04 | 80 | 1004.6 |
| 20260903051848 | 62 | 92 | 0.0 | 0.0 | 0.00 | 0.16 | 0.04 | 79 | 1004.6 |
| 20260903051602 | 62 | 106 | 0.0 | 0.0 | 0.00 | 0.04 | 0.04 | 80 | 1003.4 |
| 20260903051318 | 62 | 70 | 0.0 | 0.0 | 0.00 | 0.16 | 0.04 | 80 | 1004.6 |
| 20260903050836 | 62 | 43 | 0.0 | 0.0 | 0.00 | 0.16 | 0.04 | 79 | 1004.6 |
| 20260903050316 | 63 | 36 | 0.0 | 0.0 | 0.00 | 0.16 | 0.04 | 77 | 1004.5 |
| 20260903050004 | 62 | 57 | 0.0 | 0.0 | 0.00 | 0.04 | 0.04 | 76 | 1003.2 |
| 20260903045826 | 63 | 34 | 0.0 | 0.0 | 0.00 | 0.16 | 0.04 | 77 | 1004.5 |
| 20260903045337 | 63 | 19 | 0.0 | 0.0 | 0.00 | 0.16 | 0.04 | 75 | 1004.4 |
| 20260903044823 | 63 | 358 | 0.0 | 0.0 | 0.00 | 0.16 | 0.04 | 74 | 1004.3 |
| 20260903044607 | 62 | 34 | 0.0 | 0.0 | 0.00 | 0.04 | 0.04 | 73 | 1002.9 |
| 20260903044359 | 63 | 36 | 0.0 | 0.0 | 0.00 | 0.16 | 0.04 | 73 | 1004.2 |
| 20260903043842 | 63 | 36 | 0.0 | 0.0 | 0.00 | 0.16 | 0.04 | 74 | 1004.1 |
| 20260903043318 | 63 | 108 | 0.0 | 0.0 | 0.00 | 0.16 | 0.04 | 73 | 1004.0 |
| 20260903043101 | 62 | 113 | 0.0 | 0.0 | 0.00 | 0.04 | 0.04 | 73 | 1002.5 |
| 20260903042844 | 63 | 96 | 0.0 | 0.0 | 0.00 | 0.16 | 0.04 | 73 | 1003.8 |
| 20260903042328 | 63 | 27 | 0.0 | 0.0 | 0.00 | 0.16 | 0.04 | 74 | 1003.7 |
| 20260903041900 | 63 | 85 | 0.0 | 0.0 | 0.00 | 0.16 | 0.04 | 74 | 1003.8 |
| 20260903041606 | 63 | 86 | 0.0 | 0.0 | 0.00 | 0.04 | 0.04 | 73 | 1002.4 |
| 20260903041332 | 63 | 98 | 0.0 | 0.0 | 0.00 | 0.16 | 0.04 | 73 | 1003.7 |
| 20260903040818 | 64 | 60 | 0.0 | 0.0 | 0.00 | 0.16 | 0.04 | 73 | 1003.6 |
| 20260903035826 | 64 | 31 | 0.0 | 0.0 | 0.00 | 0.16 | 0.04 | 71 | 1003.5 |
| 20260903035355 | 64 | 27 | 0.0 | 0.0 | 0.00 | 0.16 | 0.04 | 71 | 1003.5 |
| 20260903034816 | 64 | 105 | 0.0 | 0.0 | 0.00 | 0.16 | 0.04 | 71 | 1003.6 |
| 20260903034610 | 63 | 114 | 0.0 | 0.0 | 0.00 | 0.04 | 0.04 | 71 | 1002.2 |
| 20260903034333 | 64 | 49 | 0.0 | 0.0 | 0.00 | 0.16 | 0.04 | 71 | 1003.5 |
| 20260903033855 | 64 | 108 | 0.0 | 1.0 | 0.00 | 0.16 | 0.04 | 72 | 1003.4 |
| 20260903033109 | 63 | 40 | 0.0 | 5.0 | 0.00 | 0.04 | 0.04 | 72 | 1002.0 |
| 20260903032834 | 64 | 54 | 0.0 | 5.0 | 0.00 | 0.16 | 0.04 | 71 | 1003.3 |
| 20260903032333 | 64 | 56 | 1.0 | 7.0 | 0.00 | 0.16 | 0.04 | 71 | 1003.1 |
| 20260903031819 | 64 | 68 | 2.0 | 8.0 | 0.00 | 0.16 | 0.04 | 71 | 1003.1 |
| 20260903031605 | 63 | 66 | 0.0 | 0.0 | 0.00 | 0.04 | 0.04 | 72 | 1001.7 |
| 20260903031328 | 64 | 38 | 0.0 | 0.0 | 0.00 | 0.16 | 0.04 | 71 | 1003.0 |
| 20260903030847 | 64 | 31 | 0.0 | 0.0 | 0.00 | 0.16 | 0.04 | 72 | 1002.9 |
| 20260903030344 | 64 | 34 | 0.0 | 0.0 | 0.00 | 0.16 | 0.04 | 73 | 1002.8 |
| 20260903030056 | 63 | 58 | 0.0 | 0.0 | 0.00 | 0.04 | 0.04 | 72 | 1001.5 |
| 20260903025855 | 64 | 70 | 0.0 | 0.0 | 0.00 | 0.16 | 0.04 | 71 | 1002.8 |
| 20260903025337 | 65 | 30 | 0.0 | 0.0 | 0.00 | 0.16 | 0.04 | 72 | 1002.8 |
| 20260903024854 | 65 | 77 | 0.0 | 0.0 | 0.00 | 0.16 | 0.04 | 71 | 1002.7 |
| 20260903024606 | 64 | 77 | 0.0 | 0.0 | 0.00 | 0.04 | 0.04 | 72 | 1001.3 |
| 20260903024332 | 65 | 31 | 0.0 | 0.0 | 0.00 | 0.16 | 0.04 | 70 | 1002.7 |
| 20260903023840 | 65 | 64 | 0.0 | 0.0 | 0.00 | 0.16 | 0.04 | 69 | 1002.7 |
| 20260903023328 | 65 | 87 | 0.0 | 0.0 | 0.00 | 0.16 | 0.04 | 68 | 1002.9 |
| 20260903023100 | 65 | 101 | 0.0 | 0.0 | 0.00 | 0.04 | 0.04 | 69 | 1001.5 |
| 20260903022828 | 65 | 76 | 0.0 | 0.0 | 0.00 | 0.16 | 0.04 | 69 | 1002.9 |
| 20260903022350 | 65 | 49 | 0.0 | 0.0 | 0.00 | 0.16 | 0.04 | 73 | 1002.8 |
| 20260903021841 | 66 | 40 | 0.0 | 5.0 | 0.00 | 0.16 | 0.04 | 70 | 1002.9 |
| 20260903021611 | 65 | 74 | 0.0 | 5.0 | 0.00 | 0.04 | 0.04 | 69 | 1001.5 |
| 20260903021355 | 66 | 91 | 1.0 | 5.0 | 0.00 | 0.16 | 0.04 | 68 | 1002.9 |
| 20260903020839 | 66 | 103 | 0.0 | 7.0 | 0.00 | 0.16 | 0.04 | 66 | 1003.0 |
| 20260903020342 | 66 | 104 | 3.0 | 7.0 | 0.00 | 0.16 | 0.04 | 66 | 1002.8 |
| 20260903015846 | 66 | 71 | 2.0 | 6.0 | 0.00 | 0.16 | 0.04 | 68 | 1002.8 |
| 20260903015332 | 66 | 93 | 1.0 | 5.0 | 0.00 | 0.16 | 0.04 | 68 | 1002.7 |
| 20260903014828 | 66 | 95 | 2.0 | 8.0 | 0.00 | 0.16 | 0.04 | 68 | 1002.6 |
| 20260903014319 | 66 | 98 | 2.0 | 8.0 | 0.00 | 0.16 | 0.04 | 68 | 1002.5 |
| 20260903013841 | 66 | 94 | 0.0 | 6.0 | 0.00 | 0.16 | 0.04 | 68 | 1002.3 |
| 20260903013333 | 67 | 66 | 1.0 | 7.0 | 0.00 | 0.16 | 0.04 | 67 | 1002.4 |
| 20260903013012 | 66 | 67 | 2.0 | 7.0 | 0.00 | 0.04 | 0.04 | 67 | 1000.8 |
| 20260903012834 | 67 | 88 | 1.0 | 4.0 | 0.00 | 0.16 | 0.04 | 67 | 1002.3 |
| 20260903012331 | 67 | 117 | 0.0 | 0.0 | 0.00 | 0.16 | 0.04 | 68 | 1002.4 |
| 20260903011821 | 67 | 29 | 0.0 | 0.0 | 0.00 | 0.16 | 0.04 | 69 | 1002.5 |
| 20260903011606 | 66 | 89 | 0.0 | 0.0 | 0.00 | 0.04 | 0.04 | 69 | 1000.9 |
| 20260903011338 | 67 | 144 | 0.0 | 0.0 | 0.00 | 0.16 | 0.04 | 69 | 1002.4 |
| 20260903010830 | 66 | 58 | 0.0 | 0.0 | 0.00 | 0.16 | 0.04 | 69 | 1002.4 |
| 20260903010328 | 66 | 68 | 0.0 | 0.0 | 0.00 | 0.16 | 0.04 | 70 | 1002.3 |
| 20260903010111 | 66 | 40 | 0.0 | 0.0 | 0.00 | 0.04 | 0.04 | 70 | 1000.9 |
| 20260903005832 | 67 | 54 | 0.0 | 0.0 | 0.00 | 0.16 | 0.04 | 70 | 1002.3 |
| 20260903005316 | 67 | 43 | 0.0 | 0.0 | 0.00 | 0.16 | 0.04 | 71 | 1002.4 |
| 20260903004840 | 67 | 61 | 0.0 | 0.0 | 0.00 | 0.16 | 0.04 | 71 | 1002.5 |
| 20260903004618 | 66 | 70 | 0.0 | 0.0 | 0.00 | 0.04 | 0.04 | 71 | 1000.9 |
| 20260903004322 | 66 | 71 | 0.0 | 0.0 | 0.00 | 0.16 | 0.04 | 72 | 1002.3 |
| 20260903003829 | 66 | 39 | 0.0 | 0.0 | 0.00 | 0.16 | 0.04 | 71 | 1002.3 |
| 20260903003355 | 66 | 61 | 0.0 | 0.0 | 0.00 | 0.16 | 0.04 | 71 | 1002.3 |
| 20260903003116 | 66 | 62 | 0.0 | 4.0 | 0.00 | 0.04 | 0.04 | 71 | 1000.9 |
| 20260903002820 | 66 | 34 | 0.0 | 4.0 | 0.00 | 0.16 | 0.04 | 70 | 1002.3 |
| 20260903002350 | 66 | 21 | 0.0 | 2.0 | 0.00 | 0.16 | 0.04 | 68 | 1002.2 |
| 20260903001830 | 66 | 48 | 0.0 | 5.0 | 0.00 | 0.16 | 0.04 | 67 | 1002.2 |
| 20260903001605 | 66 | 70 | 0.0 | 5.0 | 0.00 | 0.04 | 0.04 | 67 | 1000.7 |
| 20260903001321 | 67 | 78 | 1.0 | 5.0 | 0.00 | 0.16 | 0.04 | 67 | 1002.2 |
| 20260903000841 | 67 | 56 | 0.0 | 4.0 | 0.00 | 0.16 | 0.04 | 67 | 1002.2 |
| 20260903000326 | 67 | 68 | 0.0 | 12.0 | 0.00 | 0.16 | 0.04 | 64 | 1002.2 |
| 20260903000010 | 67 | 73 | 0.0 | 12.0 | 0.00 | 0.04 | 0.04 | 64 | 1000.7 |
| 20260902235833 | 68 | 27 | 1.0 | 12.0 | 0.00 | 0.16 | 0.04 | 65 | 1002.1 |
| 20260902235327 | 68 | 22 | 10.0 | 12.0 | 0.00 | 0.16 | 0.04 | 67 | 1002.1 |
| 20260902234839 | 68 | 20 | 10.0 | 12.0 | 0.00 | 0.16 | 0.04 | 71 | 1002.1 |
| 20260902234611 | 68 | 21 | 8.0 | 11.0 | 0.00 | 0.04 | 0.04 | 71 | 1000.6 |
| 20260902234331 | 70 | 31 | 6.0 | 8.0 | 0.00 | 0.16 | 0.04 | 69 | 1002.2 |
| 20260902233832 | 70 | 44 | 0.0 | 7.0 | 0.00 | 0.16 | 0.04 | 68 | 1002.2 |
| 20260902233328 | 70 | 32 | 0.0 | 0.0 | 0.00 | 0.16 | 0.04 | 71 | 1002.1 |
| 20260902233109 | 69 | 27 | 0.0 | 0.0 | 0.00 | 0.04 | 0.04 | 74 | 1000.7 |
| 20260902232835 | 70 | 19 | 0.0 | 0.0 | 0.00 | 0.16 | 0.04 | 70 | 1002.2 |
| 20260902232324 | 70 | 291 | 0.0 | 0.0 | 0.00 | 0.16 | 0.04 | 65 | 1002.1 |
| 20260902231832 | 69 | 193 | 0.0 | 5.0 | 0.00 | 0.16 | 0.04 | 67 | 1002.1 |
| 20260902231515 | 68 | 141 | 0.0 | 6.0 | 0.00 | 0.04 | 0.04 | 68 | 1000.6 |
| 20260902231331 | 69 | 216 | 0.0 | 7.0 | 0.00 | 0.16 | 0.04 | 67 | 1002.1 |
| 20260902230826 | 69 | 232 | 1.0 | 7.0 | 0.00 | 0.16 | 0.04 | 71 | 1002.3 |
| 20260902230330 | 69 | 236 | 0.0 | 7.0 | 0.00 | 0.16 | 0.04 | 66 | 1002.3 |
| 20260902230106 | 68 | 191 | 0.0 | 7.0 | 0.00 | 0.04 | 0.04 | 68 | 1001.0 |
| 20260902225845 | 69 | 246 | 0.0 | 7.0 | 0.00 | 0.16 | 0.04 | 69 | 1002.6 |
| 20260902225336 | 70 | 232 | 3.0 | 7.0 | 0.00 | 0.16 | 0.04 | 70 | 1002.7 |
| 20260902224827 | 71 | 226 | 3.0 | 6.0 | 0.00 | 0.16 | 0.04 | 67 | 1002.7 |
| 20260902224606 | 70 | 210 | 4.0 | 7.0 | 0.00 | 0.04 | 0.04 | 68 | 1001.1 |
| 20260902224329 | 71 | 228 | 1.0 | 11.0 | 0.00 | 0.16 | 0.04 | 63 | 1002.5 |
| 20260902223825 | 71 | 231 | 4.0 | 11.0 | 0.00 | 0.16 | 0.04 | 58 | 1002.4 |
| 20260902223340 | 72 | 238 | 5.0 | 12.0 | 0.00 | 0.16 | 0.04 | 64 | 1002.5 |
| 20260902223058 | 72 | 229 | 0.0 | 1.0 | 0.00 | 0.04 | 0.04 | 64 | 1001.0 |
| 20260902222820 | 72 | 231 | 0.0 | 0.0 | 0.00 | 0.16 | 0.04 | 63 | 1002.4 |
| 20260902222347 | 72 | 229 | 0.0 | 0.0 | 0.00 | 0.16 | 0.04 | 63 | 1002.4 |
| 20260902221832 | 73 | 226 | 0.0 | 0.0 | 0.00 | 0.16 | 0.04 | 66 | 1002.3 |
| 20260902221616 | 72 | 239 | 0.0 | 0.0 | 0.00 | 0.04 | 0.04 | 65 | 1000.8 |
| 20260902221354 | 73 | 245 | 0.0 | 0.0 | 0.00 | 0.16 | 0.04 | 60 | 1002.3 |
| 20260902220836 | 73 | 257 | 0.0 | 0.0 | 0.00 | 0.16 | 0.04 | 63 | 1002.5 |
| 20260902220330 | 73 | 270 | 0.0 | 0.0 | 0.00 | 0.16 | 0.04 | 60 | 1002.5 |
| 20260902220101 | 72 | 269 | 0.0 | 0.0 | 0.00 | 0.04 | 0.04 | 59 | 1001.1 |
| 20260902215834 | 73 | 274 | 0.0 | 0.0 | 0.00 | 0.16 | 0.04 | 59 | 1002.4 |
| 20260902215327 | 73 | 16 | 0.0 | 0.0 | 0.00 | 0.16 | 0.04 | 58 | 1002.7 |
| 20260902214828 | 73 | 343 | 0.0 | 0.0 | 0.00 | 0.16 | 0.04 | 59 | 1002.7 |
| 20260902214557 | 72 | 16 | 0.0 | 0.0 | 0.00 | 0.04 | 0.04 | 59 | 1001.2 |
| 20260902214328 | 73 | 23 | 0.0 | 0.0 | 0.00 | 0.16 | 0.04 | 61 | 1002.8 |
| 20260902213833 | 73 | 27 | 0.0 | 0.0 | 0.00 | 0.16 | 0.04 | 60 | 1002.8 |
| 20260902213333 | 72 | 324 | 0.0 | 0.0 | 0.00 | 0.16 | 0.04 | 62 | 1002.9 |
| 20260902213103 | 72 | 305 | 0.0 | 0.0 | 0.00 | 0.04 | 0.04 | 61 | 1001.5 |
| 20260902212818 | 72 | 339 | 0.0 | 0.0 | 0.00 | 0.16 | 0.04 | 61 | 1003.0 |
| 20260902212324 | 72 | 28 | 0.0 | 0.0 | 0.00 | 0.16 | 0.04 | 61 | 1003.1 |
| 20260902211824 | 72 | 32 | 0.0 | 0.0 | 0.00 | 0.16 | 0.04 | 61 | 1003.1 |
| 20260902211505 | 71 | 19 | 0.0 | 0.0 | 0.00 | 0.04 | 0.04 | 60 | 1001.6 |
| 20260902211328 | 72 | 9 | 0.0 | 0.0 | 0.00 | 0.16 | 0.04 | 61 | 1003.2 |
| 20260902210830 | 71 | 18 | 0.0 | 0.0 | 0.00 | 0.16 | 0.04 | 61 | 1003.3 |
| 20260902210336 | 71 | 15 | 0.0 | 0.0 | 0.00 | 0.16 | 0.04 | 62 | 1003.4 |
| 20260902210122 | 71 | 34 | 0.0 | 0.0 | 0.00 | 0.04 | 0.04 | 61 | 1001.9 |
| 20260902205850 | 71 | 34 | 0.0 | 0.0 | 0.00 | 0.16 | 0.04 | 60 | 1003.4 |
| 20260902205328 | 71 | 36 | 0.0 | 0.0 | 0.00 | 0.16 | 0.04 | 61 | 1003.6 |
| 20260902204834 | 71 | 315 | 0.0 | 0.0 | 0.00 | 0.16 | 0.04 | 62 | 1003.5 |
| 20260902204607 | 70 | 30 | 0.0 | 0.0 | 0.00 | 0.04 | 0.04 | 65 | 1002.1 |
| 20260902204324 | 70 | 356 | 0.0 | 0.0 | 0.00 | 0.16 | 0.04 | 62 | 1003.5 |
| 20260902203818 | 70 | 12 | 0.0 | 0.0 | 0.00 | 0.16 | 0.04 | 65 | 1003.6 |
| 20260902203347 | 70 | 21 | 0.0 | 0.0 | 0.00 | 0.16 | 0.04 | 64 | 1003.7 |
| 20260902203056 | 70 | 22 | 0.0 | 0.0 | 0.00 | 0.04 | 0.04 | 63 | 1002.2 |
| 20260902202855 | 70 | 13 | 0.0 | 0.0 | 0.00 | 0.16 | 0.04 | 64 | 1003.7 |
| 20260902202335 | 70 | 351 | 0.0 | 0.0 | 0.00 | 0.16 | 0.04 | 62 | 1003.7 |
| 20260902201830 | 70 | 291 | 0.0 | 0.0 | 0.00 | 0.16 | 0.04 | 62 | 1003.8 |
| 20260902201330 | 70 | 278 | 0.0 | 0.0 | 0.00 | 0.16 | 0.04 | 61 | 1004.0 |
| 20260902200828 | 70 | 281 | 0.0 | 0.0 | 0.00 | 0.16 | 0.04 | 61 | 1004.0 |
| 20260902200330 | 70 | 253 | 0.0 | 0.0 | 0.00 | 0.16 | 0.04 | 62 | 1004.1 |
| 20260902200117 | 69 | 248 | 0.0 | 0.0 | 0.00 | 0.04 | 0.04 | 62 | 1002.6 |
| 20260902195838 | 69 | 34 | 0.0 | 0.0 | 0.00 | 0.16 | 0.04 | 63 | 1004.2 |
| 20260902195345 | 69 | 40 | 0.0 | 0.0 | 0.00 | 0.16 | 0.04 | 66 | 1004.2 |
| 20260902194830 | 68 | 43 | 0.0 | 0.0 | 0.00 | 0.16 | 0.04 | 65 | 1004.3 |
| 20260902194603 | 68 | 34 | 0.0 | 0.0 | 0.00 | 0.04 | 0.04 | 65 | 1002.9 |
| 20260902194337 | 68 | 34 | 0.0 | 0.0 | 0.00 | 0.16 | 0.04 | 65 | 1004.4 |
| 20260902193850 | 68 | 21 | 0.0 | 0.0 | 0.00 | 0.16 | 0.04 | 66 | 1004.4 |
| 20260902193011 | 67 | 21 | 0.0 | 0.0 | 0.00 | 0.04 | 0.04 | 67 | 1003.0 |
| 20260902192833 | 68 | 18 | 0.0 | 0.0 | 0.00 | 0.16 | 0.04 | 68 | 1004.5 |
| 20260902192317 | 67 | 30 | 0.0 | 0.0 | 0.00 | 0.16 | 0.04 | 69 | 1004.6 |
| 20260902191844 | 68 | 29 | 0.0 | 0.0 | 0.00 | 0.16 | 0.04 | 69 | 1004.7 |
| 20260902191602 | 67 | 21 | 0.0 | 0.0 | 0.00 | 0.04 | 0.04 | 68 | 1003.3 |
| 20260902191318 | 68 | 21 | 0.0 | 0.0 | 0.00 | 0.16 | 0.04 | 69 | 1004.8 |
| 20260902190839 | 68 | 25 | 0.0 | 0.0 | 0.00 | 0.16 | 0.04 | 68 | 1004.8 |
| 20260902190332 | 68 | 23 | 0.0 | 0.0 | 0.00 | 0.16 | 0.04 | 68 | 1004.9 |
| 20260902190111 | 67 | 351 | 0.0 | 0.0 | 0.00 | 0.04 | 0.04 | 68 | 1003.4 |
| 20260902185828 | 68 | 352 | 0.0 | 0.0 | 0.00 | 0.16 | 0.04 | 69 | 1004.9 |
| 20260902185321 | 68 | 245 | 0.0 | 0.0 | 0.00 | 0.16 | 0.04 | 69 | 1004.9 |
| 20260902184831 | 67 | 248 | 0.0 | 0.0 | 0.00 | 0.16 | 0.04 | 71 | 1004.9 |
| 20260902184516 | 66 | 251 | 0.0 | 0.0 | 0.00 | 0.04 | 0.04 | 71 | 1003.5 |
| 20260902184340 | 67 | 251 | 0.0 | 0.0 | 0.00 | 0.16 | 0.04 | 70 | 1004.9 |
| 20260902183835 | 67 | 195 | 0.0 | 0.0 | 0.00 | 0.16 | 0.04 | 73 | 1004.9 |
| 20260902183328 | 66 | 208 | 0.0 | 4.0 | 0.00 | 0.16 | 0.04 | 74 | 1004.9 |
| 20260902183107 | 66 | 228 | 0.0 | 4.0 | 0.00 | 0.04 | 0.04 | 73 | 1003.5 |
| 20260902182837 | 66 | 215 | 1.0 | 4.0 | 0.00 | 0.16 | 0.04 | 73 | 1005.0 |
| 20260902182316 | 66 | 235 | 0.0 | 0.0 | 0.00 | 0.16 | 0.04 | 74 | 1004.9 |
| 20260902181821 | 66 | 229 | 0.0 | 0.0 | 0.00 | 0.16 | 0.04 | 72 | 1004.9 |
| 20260902181506 | 66 | 249 | 0.0 | 0.0 | 0.00 | 0.04 | 0.04 | 71 | 1003.6 |
| 20260902181329 | 66 | 188 | 0.0 | 0.0 | 0.00 | 0.16 | 0.04 | 71 | 1005.1 |
| 20260902180844 | 66 | 231 | 0.0 | 0.0 | 0.00 | 0.16 | 0.04 | 69 | 1005.2 |
| 20260902180334 | 66 | 288 | 0.0 | 0.0 | 0.00 | 0.16 | 0.04 | 70 | 1005.2 |
| 20260902175822 | 65 | 277 | 0.0 | 0.0 | 0.00 | 0.16 | 0.04 | 73 | 1005.3 |
| 20260902175325 | 65 | 286 | 0.0 | 0.0 | 0.00 | 0.16 | 0.04 | 73 | 1005.3 |
| 20260902174828 | 65 | 333 | 0.0 | 0.0 | 0.00 | 0.16 | 0.04 | 74 | 1005.4 |
| 20260902174554 | 65 | 11 | 0.0 | 0.0 | 0.00 | 0.04 | 0.04 | 74 | 1004.0 |
| 20260902174332 | 65 | 354 | 0.0 | 0.0 | 0.00 | 0.16 | 0.04 | 75 | 1005.4 |
| 20260902173827 | 65 | 20 | 0.0 | 0.0 | 0.00 | 0.16 | 0.04 | 69 | 1005.2 |
| 20260902173320 | 65 | 25 | 0.0 | 0.0 | 0.00 | 0.16 | 0.04 | 75 | 1005.1 |
| 20260902173058 | 65 | 20 | 0.0 | 0.0 | 0.00 | 0.04 | 0.04 | 75 | 1003.6 |
| 20260902172831 | 65 | 51 | 0.0 | 0.0 | 0.00 | 0.16 | 0.04 | 76 | 1005.3 |
| 20260902172323 | 65 | 98 | 0.0 | 0.0 | 0.00 | 0.16 | 0.04 | 77 | 1005.4 |
| 20260902171822 | 64 | 78 | 0.0 | 0.0 | 0.00 | 0.16 | 0.04 | 76 | 1005.0 |
| 20260902171604 | 63 | 94 | 0.0 | 0.0 | 0.00 | 0.04 | 0.04 | 75 | 1003.6 |
| 20260902171333 | 64 | 51 | 0.0 | 0.0 | 0.00 | 0.16 | 0.04 | 74 | 1005.2 |
| 20260902170830 | 63 | 271 | 0.0 | 0.0 | 0.00 | 0.16 | 0.04 | 74 | 1005.5 |
| 20260902170332 | 63 | 283 | 0.0 | 0.0 | 0.00 | 0.16 | 0.04 | 76 | 1005.6 |
| 20260902170130 | 63 | 257 | 0.0 | 0.0 | 0.00 | 0.04 | 0.04 | 77 | 1004.3 |
| 20260902165819 | 63 | 263 | 0.0 | 0.0 | 0.08 | 0.16 | 0.04 | 78 | 1005.9 |
| 20260902165317 | 63 | 75 | 0.0 | 0.0 | 0.08 | 0.16 | 0.04 | 79 | 1005.9 |
| 20260902164830 | 63 | 75 | 0.0 | 0.0 | 0.08 | 0.16 | 0.04 | 81 | 1005.9 |
| 20260902164616 | 62 | 75 | 0.0 | 0.0 | 0.02 | 0.04 | 0.04 | 81 | 1004.5 |
| 20260902164318 | 62 | 61 | 0.0 | 0.0 | 0.08 | 0.16 | 0.04 | 80 | 1005.8 |
| 20260902163821 | 62 | 330 | 0.0 | 0.0 | 0.08 | 0.16 | 0.04 | 79 | 1005.8 |
| 20260902163330 | 62 | 330 | 0.0 | 0.0 | 0.08 | 0.16 | 0.04 | 81 | 1005.7 |
| 20260902163103 | 62 | 282 | 0.0 | 1.0 | 0.02 | 0.04 | 0.04 | 83 | 1004.3 |
| 20260902162821 | 62 | 262 | 0.0 | 1.0 | 0.08 | 0.16 | 0.04 | 82 | 1005.6 |
| 20260902162331 | 62 | 146 | 0.0 | 5.0 | 0.08 | 0.16 | 0.04 | 81 | 1005.5 |
| 20260902161824 | 62 | 37 | 0.0 | 5.0 | 0.08 | 0.16 | 0.04 | 81 | 1005.3 |
| 20260902161502 | 62 | 20 | 0.0 | 5.0 | 0.03 | 0.04 | 0.04 | 83 | 1003.6 |
| 20260902161327 | 62 | 32 | 0.0 | 0.0 | 0.16 | 0.16 | 0.04 | 82 | 1004.9 |
| 20260902160836 | 62 | 21 | 0.0 | 0.0 | 0.16 | 0.16 | 0.04 | 82 | 1005.0 |
| 20260902160321 | 63 | 34 | 0.0 | 6.0 | 0.16 | 0.16 | 0.04 | 78 | 1004.9 |
| 20260902160109 | 62 | 79 | 0.0 | 8.0 | 0.03 | 0.03 | 0.03 | 78 | 1003.5 |
| 20260902155820 | 62 | 95 | 0.0 | 9.0 | 0.08 | 0.08 | 0.02 | 77 | 1004.8 |
| 20260902155328 | 62 | 96 | 6.0 | 9.0 | 0.08 | 0.08 | 0.02 | 79 | 1004.8 |
| 20260902154832 | 62 | 108 | 3.0 | 6.0 | 0.08 | 0.08 | 0.02 | 81 | 1004.6 |
| 20260902154327 | 62 | 108 | 0.0 | 7.0 | 0.08 | 0.08 | 0.02 | 81 | 1004.6 |
| 20260902153851 | 62 | 96 | 4.0 | 7.0 | 0.08 | 0.08 | 0.02 | 79 | 1004.6 |
| 20260902153333 | 63 | 76 | 0.0 | 3.0 | 0.08 | 0.08 | 0.02 | 77 | 1004.5 |
| 20260902153103 | 63 | 86 | 0.0 | 7.0 | 0.02 | 0.02 | 0.02 | 78 | 1003.2 |
| 20260902152819 | 64 | 72 | 0.0 | 16.0 | 0.08 | 0.08 | 0.02 | 76 | 1004.8 |
| 20260902152341 | 64 | 284 | 6.0 | 16.0 | 0.08 | 0.08 | 0.02 | 75 | 1005.2 |
| 20260902151834 | 65 | 239 | 6.0 | 17.0 | 0.08 | 0.08 | 0.02 | 76 | 1005.7 |
| 20260902151620 | 65 | 239 | 6.0 | 11.0 | 0.01 | 0.01 | 0.01 | 71 | 1004.5 |
| 20260902151332 | 65 | 243 | 4.0 | 8.0 | 0.00 | 0.00 | 0.00 | 67 | 1005.9 |
| 20260902150847 | 64 | 220 | 0.0 | 12.0 | 0.00 | 0.00 | 0.00 | 65 | 1006.5 |
| 20260902150333 | 64 | 174 | 0.0 | 0.0 | 0.00 | 0.00 | 0.00 | 69 | 1006.1 |
| 20260902150116 | 63 | 179 | 0.0 | 0.0 | 0.00 | 0.00 | 0.00 | 70 | 1004.3 |
| 20260902145816 | 64 | 268 | 0.0 | 0.0 | 0.00 | 0.00 | 0.00 | 69 | 1005.2 |
| 20260902145323 | 63 | 253 | 0.0 | 0.0 | 0.00 | 0.00 | 0.00 | 67 | 1004.7 |
| 20260902144827 | 63 | 44 | 0.0 | 0.0 | 0.00 | 0.00 | 0.00 | 68 | 1004.5 |
| 20260902144609 | 62 | 44 | 0.0 | 0.0 | 0.00 | 0.00 | 0.00 | 67 | 1003.0 |
| 20260902144335 | 62 | 44 | 0.0 | 0.0 | 0.00 | 0.00 | 0.00 | 67 | 1004.4 |
| 20260902143828 | 62 | 26 | 0.0 | 0.0 | 0.00 | 0.00 | 0.00 | 69 | 1004.4 |
| 20260902143323 | 62 | 99 | 0.0 | 0.0 | 0.00 | 0.00 | 0.00 | 67 | 1004.4 |
| 20260902143001 | 61 | 105 | 0.0 | 0.0 | 0.00 | 0.00 | 0.00 | 66 | 1003.0 |
| 20260902142827 | 62 | 129 | 0.0 | 0.0 | 0.00 | 0.00 | 0.00 | 65 | 1004.5 |
| 20260902142330 | 61 | 130 | 0.0 | 0.0 | 0.00 | 0.00 | 0.00 | 66 | 1004.6 |
| 20260902141834 | 61 | 130 | 0.0 | 0.0 | 0.00 | 0.00 | 0.00 | 66 | 1004.6 |
| 20260902141602 | 61 | 105 | 0.0 | 0.0 | 0.00 | 0.00 | 0.00 | 67 | 1003.2 |
| 20260902141357 | 61 | 104 | 0.0 | 0.0 | 0.00 | 0.00 | 0.00 | 67 | 1004.6 |
| 20260902140838 | 61 | 76 | 0.0 | 0.0 | 0.00 | 0.00 | 0.00 | 66 | 1004.6 |
| 20260902140357 | 61 | 146 | 0.0 | 0.0 | 0.00 | 0.00 | 0.00 | 67 | 1004.7 |
| 20260902140108 | 61 | 113 | 0.0 | 0.0 | 0.00 | 0.00 | 0.00 | 67 | 1003.3 |
| 20260902135331 | 61 | 91 | 0.0 | 0.0 | 0.00 | 0.00 | 0.00 | 67 | 1004.6 |
| 20260902134821 | 61 | 84 | 0.0 | 0.0 | 0.00 | 0.00 | 0.00 | 67 | 1004.7 |
| 20260902134544 | 61 | 60 | 0.0 | 0.0 | 0.00 | 0.00 | 0.00 | 67 | 1003.3 |
| 20260902134330 | 61 | 75 | 0.0 | 0.0 | 0.00 | 0.00 | 0.00 | 67 | 1004.7 |
| 20260902133821 | 61 | 56 | 0.0 | 0.0 | 0.00 | 0.00 | 0.00 | 68 | 1004.7 |
| 20260902133400 | 61 | 100 | 0.0 | 0.0 | 0.00 | 0.00 | 0.00 | 69 | 1004.7 |
| 20260902133100 | 60 | 82 | 0.0 | 0.0 | 0.00 | 0.00 | 0.00 | 70 | 1003.3 |
| 20260902132833 | 60 | 95 | 0.0 | 0.0 | 0.00 | 0.00 | 0.00 | 70 | 1004.6 |
| 20260902132338 | 60 | 79 | 0.0 | 0.0 | 0.00 | 0.00 | 0.00 | 72 | 1004.6 |
| 20260902131842 | 60 | 90 | 0.0 | 0.0 | 0.00 | 0.00 | 0.00 | 73 | 1004.7 |
| 20260902131600 | 60 | 74 | 0.0 | 0.0 | 0.00 | 0.00 | 0.00 | 73 | 1003.3 |
| 20260902131318 | 60 | 66 | 0.0 | 0.0 | 0.00 | 0.00 | 0.00 | 74 | 1004.8 |
| 20260902130835 | 61 | 11 | 0.0 | 0.0 | 0.00 | 0.00 | 0.00 | 75 | 1004.8 |
| 20260902130346 | 61 | 349 | 0.0 | 0.0 | 0.00 | 0.00 | 0.00 | 75 | 1004.8 |
| 20260902130106 | 61 | 75 | 0.0 | 0.0 | 0.00 | 0.00 | 0.00 | 73 | 1003.4 |
| 20260902125818 | 61 | 70 | 0.0 | 0.0 | 0.00 | 0.00 | 0.00 | 72 | 1004.9 |
| 20260902125350 | 62 | 52 | 0.0 | 0.0 | 0.00 | 0.00 | 0.00 | 71 | 1004.8 |
| 20260902124822 | 62 | 46 | 0.0 | 0.0 | 0.00 | 0.00 | 0.00 | 72 | 1004.8 |
| 20260902124613 | 62 | 101 | 0.0 | 0.0 | 0.00 | 0.00 | 0.00 | 71 | 1003.3 |
| 20260902124328 | 63 | 101 | 0.0 | 0.0 | 0.00 | 0.00 | 0.00 | 72 | 1004.7 |
| 20260902123832 | 63 | 101 | 0.0 | 0.0 | 0.00 | 0.00 | 0.00 | 68 | 1004.7 |
| 20260902123322 | 63 | 97 | 0.0 | 0.0 | 0.00 | 0.00 | 0.00 | 68 | 1004.8 |
| 20260902123101 | 63 | 65 | 0.0 | 0.0 | 0.00 | 0.00 | 0.00 | 69 | 1003.4 |
| 20260902122840 | 64 | 107 | 0.0 | 0.0 | 0.00 | 0.00 | 0.00 | 67 | 1004.7 |
| 20260902122323 | 64 | 107 | 0.0 | 0.0 | 0.00 | 0.00 | 0.00 | 67 | 1004.7 |
| 20260902121852 | 64 | 129 | 0.0 | 0.0 | 0.00 | 0.00 | 0.00 | 65 | 1004.8 |
| 20260902121603 | 63 | 129 | 0.0 | 0.0 | 0.00 | 0.00 | 0.00 | 65 | 1003.4 |
| 20260902121356 | 64 | 121 | 0.0 | 0.0 | 0.00 | 0.00 | 0.00 | 64 | 1004.8 |
| 20260902120843 | 63 | 125 | 0.0 | 0.0 | 0.00 | 0.00 | 0.00 | 64 | 1004.7 |
| 20260902120341 | 63 | 121 | 0.0 | 0.0 | 0.00 | 0.00 | 0.00 | 65 | 1004.6 |
| 20260902120130 | 63 | 121 | 0.0 | 0.0 | 0.00 | 0.00 | 0.00 | 65 | 1003.2 |
| 20260902115826 | 63 | 107 | 0.0 | 0.0 | 0.00 | 0.00 | 0.00 | 66 | 1004.5 |
| 20260902115337 | 63 | 79 | 0.0 | 0.0 | 0.00 | 0.00 | 0.00 | 67 | 1004.5 |
| 20260902114836 | 63 | 74 | 0.0 | 0.0 | 0.00 | 0.00 | 0.00 | 68 | 1004.4 |
| 20260902114600 | 62 | 58 | 0.0 | 0.0 | 0.00 | 0.00 | 0.00 | 68 | 1003.0 |
| 20260902114317 | 63 | 50 | 0.0 | 0.0 | 0.00 | 0.00 | 0.00 | 68 | 1004.5 |
| 20260902113828 | 63 | 89 | 0.0 | 0.0 | 0.00 | 0.00 | 0.00 | 69 | 1004.4 |
| 20260902113327 | 63 | 51 | 0.0 | 0.0 | 0.00 | 0.00 | 0.00 | 70 | 1004.5 |
| 20260902113112 | 63 | 46 | 0.0 | 0.0 | 0.00 | 0.00 | 0.00 | 70 | 1003.1 |
| 20260902112841 | 64 | 44 | 0.0 | 0.0 | 0.00 | 0.00 | 0.00 | 67 | 1004.4 |
| 20260902112336 | 64 | 86 | 0.0 | 0.0 | 0.00 | 0.00 | 0.00 | 67 | 1004.4 |
| 20260902111821 | 64 | 91 | 0.0 | 0.0 | 0.00 | 0.00 | 0.00 | 67 | 1004.5 |
| 20260902111603 | 64 | 86 | 0.0 | 0.0 | 0.00 | 0.00 | 0.00 | 68 | 1003.0 |
| 20260902111321 | 64 | 91 | 0.0 | 0.0 | 0.00 | 0.00 | 0.00 | 68 | 1004.4 |
| 20260902110818 | 65 | 81 | 0.0 | 0.0 | 0.00 | 0.00 | 0.00 | 67 | 1004.5 |
| 20260902110348 | 65 | 43 | 0.0 | 0.0 | 0.00 | 0.00 | 0.00 | 69 | 1004.6 |
| 20260902110158 | 64 | 91 | 0.0 | 0.0 | 0.00 | 0.00 | 0.00 | 68 | 1003.2 |
| 20260902105835 | 65 | 104 | 0.0 | 0.0 | 0.00 | 0.00 | 0.00 | 67 | 1004.6 |
| 20260902105321 | 65 | 97 | 0.0 | 0.0 | 0.00 | 0.00 | 0.00 | 67 | 1004.7 |
| 20260902104840 | 65 | 94 | 0.0 | 0.0 | 0.00 | 0.00 | 0.00 | 68 | 1004.8 |
| 20260902104554 | 64 | 80 | 0.0 | 0.0 | 0.00 | 0.00 | 0.00 | 68 | 1003.4 |
| 20260902104331 | 65 | 76 | 0.0 | 0.0 | 0.00 | 0.00 | 0.00 | 68 | 1004.8 |
| 20260902103839 | 65 | 40 | 0.0 | 0.0 | 0.00 | 0.00 | 0.00 | 67 | 1004.8 |
| 20260902103326 | 65 | 162 | 0.0 | 0.0 | 0.00 | 0.00 | 0.00 | 68 | 1004.8 |
| 20260902103100 | 64 | 152 | 0.0 | 0.0 | 0.00 | 0.00 | 0.00 | 67 | 1003.4 |
| 20260902102858 | 65 | 140 | 0.0 | 0.0 | 0.00 | 0.00 | 0.00 | 67 | 1004.8 |
| 20260902102339 | 65 | 50 | 0.0 | 0.0 | 0.00 | 0.00 | 0.00 | 67 | 1004.7 |
| 20260902101831 | 65 | 96 | 0.0 | 0.0 | 0.00 | 0.00 | 0.00 | 62 | 1004.7 |
| 20260902101332 | 65 | 164 | 0.0 | 0.0 | 0.00 | 0.00 | 0.00 | 62 | 1004.7 |
| 20260902100817 | 65 | 139 | 0.0 | 0.0 | 0.00 | 0.00 | 0.00 | 63 | 1004.8 |
| 20260902100351 | 65 | 106 | 0.0 | 0.0 | 0.00 | 0.00 | 0.00 | 64 | 1004.7 |
| 20260902100114 | 65 | 105 | 0.0 | 0.0 | 0.00 | 0.00 | 0.00 | 63 | 1003.2 |
| 20260902095838 | 65 | 107 | 0.0 | 0.0 | 0.00 | 0.00 | 0.00 | 64 | 1004.7 |
| 20260902094822 | 66 | 74 | 0.0 | 0.0 | 0.00 | 0.00 | 0.00 | 64 | 1004.6 |
| 20260902094602 | 66 | 67 | 0.0 | 0.0 | 0.00 | 0.00 | 0.00 | 65 | 1003.2 |
| 20260902094321 | 68 | 21 | 0.0 | 0.0 | 0.00 | 0.00 | 0.00 | 61 | 1004.6 |
| 20260902093828 | 69 | 40 | 0.0 | 0.0 | 0.00 | 0.00 | 0.00 | 57 | 1004.6 |
| 20260902093337 | 69 | 76 | 0.0 | 0.0 | 0.00 | 0.00 | 0.00 | 55 | 1004.6 |
| 20260902093137 | 69 | 76 | 0.0 | 0.0 | 0.00 | 0.00 | 0.00 | 57 | 1003.3 |
| 20260902092819 | 69 | 82 | 0.0 | 0.0 | 0.00 | 0.00 | 0.00 | 55 | 1004.7 |
| 20260902092321 | 69 | 285 | 0.0 | 0.0 | 0.00 | 0.00 | 0.00 | 56 | 1004.7 |
| 20260902091831 | 68 | 278 | 0.0 | 0.0 | 0.00 | 0.00 | 0.00 | 57 | 1004.8 |
| 20260902091629 | 67 | 249 | 0.0 | 0.0 | 0.00 | 0.00 | 0.00 | 58 | 1003.4 |
| 20260902091333 | 68 | 103 | 0.0 | 0.0 | 0.00 | 0.00 | 0.00 | 59 | 1004.9 |
| 20260902090827 | 68 | 88 | 0.0 | 0.0 | 0.00 | 0.00 | 0.00 | 58 | 1004.9 |
| 20260902090328 | 69 | 86 | 0.0 | 0.0 | 0.00 | 0.00 | 0.00 | 58 | 1005.1 |
| 20260902090101 | 69 | 154 | 0.0 | 0.0 | 0.00 | 0.00 | 0.00 | 57 | 1003.7 |
| 20260902085858 | 69 | 158 | 0.0 | 0.0 | 0.00 | 0.00 | 0.00 | 57 | 1005.2 |
| 20260902085318 | 69 | 130 | 0.0 | 0.0 | 0.00 | 0.00 | 0.00 | 56 | 1005.0 |
| 20260902084818 | 70 | 153 | 0.0 | 0.0 | 0.00 | 0.00 | 0.00 | 56 | 1005.0 |
| 20260902084642 | 69 | 142 | 0.0 | 0.0 | 0.00 | 0.00 | 0.00 | 56 | 1003.7 |
| 20260902084318 | 70 | 143 | 0.0 | 0.0 | 0.00 | 0.00 | 0.00 | 56 | 1005.1 |
| 20260902083843 | 70 | 167 | 0.0 | 0.0 | 0.00 | 0.00 | 0.00 | 55 | 1005.2 |
| 20260902083319 | 70 | 209 | 0.0 | 0.0 | 0.00 | 0.00 | 0.00 | 56 | 1005.3 |
| 20260902083106 | 70 | 200 | 0.0 | 0.0 | 0.00 | 0.00 | 0.00 | 55 | 1003.8 |
| 20260902082829 | 70 | 226 | 0.0 | 0.0 | 0.00 | 0.00 | 0.00 | 55 | 1005.2 |
| 20260902082324 | 70 | 163 | 0.0 | 0.0 | 0.00 | 0.00 | 0.00 | 55 | 1005.1 |